sensor_id;sensor_type;location;lat;lon;timestamp;P1;durP1;ratioP1;P2;durP2;ratioP2
15363;SDS011;7781;49.690;6.472;2023-02-08T00:01:42;5.60;;;3.40;;
15363;SDS011;7781;49.690;6.472;2023-02-08T00:04:10;7.13;;;3.27;;
15363;SDS011;7781;49.690;6.472;2023-02-08T00:06:40;4.87;;;3.00;;
15363;SDS011;7781;49.690;6.472;2023-02-08T00:09:09;3.20;;;2.47;;
15363;SDS011;7781;49.690;6.472;2023-02-08T00:11:38;8.03;;;4.07;;
15363;SDS011;7781;49.690;6.472;2023-02-08T00:14:07;5.60;;;3.33;;
15363;SDS011;7781;49.690;6.472;2023-02-08T00:16:38;10.53;;;3.70;;
15363;SDS011;7781;49.690;6.472;2023-02-08T00:19:06;3.63;;;3.00;;
15363;SDS011;7781;49.690;6.472;2023-02-08T00:21:37;4.13;;;2.80;;
15363;SDS011;7781;49.690;6.472;2023-02-08T00:24:09;12.93;;;3.90;;
15363;SDS011;7781;49.690;6.472;2023-02-08T00:26:38;3.70;;;2.90;;
15363;SDS011;7781;49.690;6.472;2023-02-08T00:29:07;7.30;;;3.43;;
15363;SDS011;7781;49.690;6.472;2023-02-08T00:31:36;6.47;;;3.83;;
15363;SDS011;7781;49.690;6.472;2023-02-08T00:34:05;5.20;;;2.97;;
15363;SDS011;7781;49.690;6.472;2023-02-08T00:36:36;10.60;;;4.27;;
15363;SDS011;7781;49.690;6.472;2023-02-08T00:39:08;6.13;;;3.37;;
15363;SDS011;7781;49.690;6.472;2023-02-08T00:41:37;6.80;;;3.40;;
15363;SDS011;7781;49.690;6.472;2023-02-08T00:44:05;6.20;;;3.87;;
15363;SDS011;7781;49.690;6.472;2023-02-08T00:46:34;6.53;;;3.33;;
15363;SDS011;7781;49.690;6.472;2023-02-08T00:49:03;7.63;;;3.40;;
15363;SDS011;7781;49.690;6.472;2023-02-08T00:51:32;4.83;;;3.67;;
15363;SDS011;7781;49.690;6.472;2023-02-08T00:54:01;5.33;;;3.27;;
15363;SDS011;7781;49.690;6.472;2023-02-08T00:56:31;5.23;;;3.13;;
15363;SDS011;7781;49.690;6.472;2023-02-08T00:59:03;7.17;;;3.10;;
15363;SDS011;7781;49.690;6.472;2023-02-08T01:01:32;4.97;;;3.20;;
15363;SDS011;7781;49.690;6.472;2023-02-08T01:04:01;6.20;;;3.33;;
15363;SDS011;7781;49.690;6.472;2023-02-08T01:06:31;6.07;;;3.10;;
15363;SDS011;7781;49.690;6.472;2023-02-08T01:09:04;4.97;;;3.10;;
15363;SDS011;7781;49.690;6.472;2023-02-08T01:11:35;6.27;;;3.53;;
15363;SDS011;7781;49.690;6.472;2023-02-08T01:14:05;5.83;;;2.93;;
15363;SDS011;7781;49.690;6.472;2023-02-08T01:16:35;6.37;;;3.40;;
15363;SDS011;7781;49.690;6.472;2023-02-08T01:19:04;5.80;;;3.23;;
15363;SDS011;7781;49.690;6.472;2023-02-08T01:21:34;6.10;;;3.73;;
15363;SDS011;7781;49.690;6.472;2023-02-08T01:24:04;7.53;;;3.87;;
15363;SDS011;7781;49.690;6.472;2023-02-08T01:26:35;6.03;;;3.97;;
15363;SDS011;7781;49.690;6.472;2023-02-08T01:29:05;5.73;;;3.23;;
15363;SDS011;7781;49.690;6.472;2023-02-08T01:31:38;5.47;;;3.50;;
15363;SDS011;7781;49.690;6.472;2023-02-08T01:34:09;4.97;;;3.20;;
15363;SDS011;7781;49.690;6.472;2023-02-08T01:36:42;4.33;;;2.97;;
15363;SDS011;7781;49.690;6.472;2023-02-08T01:39:12;9.30;;;3.73;;
15363;SDS011;7781;49.690;6.472;2023-02-08T01:41:43;9.30;;;3.20;;
15363;SDS011;7781;49.690;6.472;2023-02-08T01:47:21;5.47;;;3.97;;
15363;SDS011;7781;49.690;6.472;2023-02-08T01:49:49;5.80;;;3.20;;
15363;SDS011;7781;49.690;6.472;2023-02-08T01:52:19;8.30;;;3.33;;
15363;SDS011;7781;49.690;6.472;2023-02-08T01:54:54;5.97;;;3.13;;
15363;SDS011;7781;49.690;6.472;2023-02-08T01:57:27;4.63;;;3.03;;
15363;SDS011;7781;49.690;6.472;2023-02-08T01:59:56;5.43;;;3.40;;
15363;SDS011;7781;49.690;6.472;2023-02-08T02:02:39;6.90;;;3.93;;
15363;SDS011;7781;49.690;6.472;2023-02-08T02:05:10;9.07;;;4.47;;
15363;SDS011;7781;49.690;6.472;2023-02-08T02:07:39;8.27;;;4.60;;
15363;SDS011;7781;49.690;6.472;2023-02-08T02:10:09;10.20;;;4.00;;
15363;SDS011;7781;49.690;6.472;2023-02-08T02:12:43;10.50;;;3.77;;
15363;SDS011;7781;49.690;6.472;2023-02-08T02:15:12;9.37;;;3.37;;
15363;SDS011;7781;49.690;6.472;2023-02-08T02:17:42;3.90;;;2.60;;
15363;SDS011;7781;49.690;6.472;2023-02-08T02:20:13;6.67;;;3.80;;
15363;SDS011;7781;49.690;6.472;2023-02-08T02:32:05;6.37;;;3.50;;
15363;SDS011;7781;49.690;6.472;2023-02-08T02:34:44;8.53;;;4.03;;
15363;SDS011;7781;49.690;6.472;2023-02-08T02:37:21;8.50;;;4.70;;
15363;SDS011;7781;49.690;6.472;2023-02-08T02:40:00;5.67;;;3.00;;
15363;SDS011;7781;49.690;6.472;2023-02-08T02:42:36;4.57;;;3.70;;
15363;SDS011;7781;49.690;6.472;2023-02-08T02:45:34;4.83;;;2.93;;
15363;SDS011;7781;49.690;6.472;2023-02-08T02:48:12;6.77;;;3.20;;
15363;SDS011;7781;49.690;6.472;2023-02-08T02:50:47;7.93;;;3.17;;
15363;SDS011;7781;49.690;6.472;2023-02-08T02:53:20;8.63;;;3.47;;
15363;SDS011;7781;49.690;6.472;2023-02-08T02:55:55;3.20;;;2.90;;
15363;SDS011;7781;49.690;6.472;2023-02-08T02:58:30;8.10;;;4.00;;
15363;SDS011;7781;49.690;6.472;2023-02-08T03:01:00;6.20;;;3.20;;
15363;SDS011;7781;49.690;6.472;2023-02-08T03:03:32;7.40;;;3.00;;
15363;SDS011;7781;49.690;6.472;2023-02-08T03:06:02;6.70;;;4.00;;
15363;SDS011;7781;49.690;6.472;2023-02-08T03:11:42;7.33;;;4.17;;
15363;SDS011;7781;49.690;6.472;2023-02-08T03:14:24;8.40;;;4.13;;
15363;SDS011;7781;49.690;6.472;2023-02-08T03:17:08;4.23;;;3.07;;
15363;SDS011;7781;49.690;6.472;2023-02-08T03:19:55;9.37;;;3.90;;
15363;SDS011;7781;49.690;6.472;2023-02-08T03:22:31;7.77;;;3.83;;
15363;SDS011;7781;49.690;6.472;2023-02-08T03:25:06;7.27;;;4.20;;
15363;SDS011;7781;49.690;6.472;2023-02-08T03:27:42;6.50;;;3.70;;
15363;SDS011;7781;49.690;6.472;2023-02-08T03:30:19;5.97;;;3.47;;
15363;SDS011;7781;49.690;6.472;2023-02-08T03:32:57;5.00;;;3.50;;
15363;SDS011;7781;49.690;6.472;2023-02-08T03:35:32;5.20;;;3.83;;
15363;SDS011;7781;49.690;6.472;2023-02-08T03:38:06;8.73;;;3.77;;
15363;SDS011;7781;49.690;6.472;2023-02-08T03:40:44;5.97;;;3.57;;
15363;SDS011;7781;49.690;6.472;2023-02-08T03:43:18;3.00;;;2.50;;
15363;SDS011;7781;49.690;6.472;2023-02-08T03:45:52;4.70;;;3.27;;
15363;SDS011;7781;49.690;6.472;2023-02-08T03:48:28;5.13;;;3.77;;
15363;SDS011;7781;49.690;6.472;2023-02-08T03:51:01;6.90;;;3.40;;
15363;SDS011;7781;49.690;6.472;2023-02-08T03:53:31;4.80;;;2.90;;
15363;SDS011;7781;49.690;6.472;2023-02-08T03:56:06;4.97;;;3.40;;
15363;SDS011;7781;49.690;6.472;2023-02-08T03:58:39;4.73;;;3.37;;
15363;SDS011;7781;49.690;6.472;2023-02-08T04:01:12;5.80;;;3.43;;
15363;SDS011;7781;49.690;6.472;2023-02-08T04:03:46;5.20;;;3.00;;
15363;SDS011;7781;49.690;6.472;2023-02-08T04:06:24;4.40;;;3.40;;
15363;SDS011;7781;49.690;6.472;2023-02-08T04:08:53;7.40;;;2.80;;
15363;SDS011;7781;49.690;6.472;2023-02-08T04:11:21;6.23;;;3.30;;
15363;SDS011;7781;49.690;6.472;2023-02-08T04:13:55;4.90;;;3.20;;
15363;SDS011;7781;49.690;6.472;2023-02-08T04:16:24;9.57;;;3.23;;
15363;SDS011;7781;49.690;6.472;2023-02-08T04:18:52;3.87;;;2.80;;
15363;SDS011;7781;49.690;6.472;2023-02-08T04:21:22;5.60;;;3.30;;
15363;SDS011;7781;49.690;6.472;2023-02-08T04:23:52;6.40;;;3.77;;
15363;SDS011;7781;49.690;6.472;2023-02-08T04:26:20;4.50;;;3.20;;
15363;SDS011;7781;49.690;6.472;2023-02-08T04:28:49;7.50;;;3.67;;
15363;SDS011;7781;49.690;6.472;2023-02-08T04:31:18;7.07;;;3.73;;
15363;SDS011;7781;49.690;6.472;2023-02-08T04:33:47;4.20;;;3.40;;
15363;SDS011;7781;49.690;6.472;2023-02-08T04:36:17;7.30;;;4.17;;
15363;SDS011;7781;49.690;6.472;2023-02-08T04:38:46;7.80;;;3.77;;
15363;SDS011;7781;49.690;6.472;2023-02-08T04:41:16;4.70;;;3.30;;
15363;SDS011;7781;49.690;6.472;2023-02-08T04:43:45;4.03;;;2.70;;
15363;SDS011;7781;49.690;6.472;2023-02-08T04:46:13;5.10;;;2.67;;
15363;SDS011;7781;49.690;6.472;2023-02-08T04:48:41;4.93;;;2.70;;
15363;SDS011;7781;49.690;6.472;2023-02-08T04:51:10;4.93;;;2.87;;
15363;SDS011;7781;49.690;6.472;2023-02-08T04:53:38;4.67;;;2.80;;
15363;SDS011;7781;49.690;6.472;2023-02-08T04:56:07;4.63;;;2.70;;
15363;SDS011;7781;49.690;6.472;2023-02-08T04:58:40;3.07;;;2.40;;
15363;SDS011;7781;49.690;6.472;2023-02-08T05:01:08;3.37;;;2.67;;
15363;SDS011;7781;49.690;6.472;2023-02-08T05:03:38;6.00;;;2.97;;
15363;SDS011;7781;49.690;6.472;2023-02-08T05:06:07;4.80;;;2.40;;
15363;SDS011;7781;49.690;6.472;2023-02-08T05:08:35;5.20;;;2.60;;
15363;SDS011;7781;49.690;6.472;2023-02-08T05:11:04;6.30;;;3.43;;
15363;SDS011;7781;49.690;6.472;2023-02-08T05:13:33;5.33;;;2.70;;
15363;SDS011;7781;49.690;6.472;2023-02-08T05:16:04;4.73;;;2.87;;
15363;SDS011;7781;49.690;6.472;2023-02-08T05:18:33;2.40;;;2.00;;
15363;SDS011;7781;49.690;6.472;2023-02-08T05:21:02;7.27;;;3.27;;
15363;SDS011;7781;49.690;6.472;2023-02-08T05:23:32;2.90;;;2.40;;
15363;SDS011;7781;49.690;6.472;2023-02-08T05:26:04;3.03;;;2.60;;
15363;SDS011;7781;49.690;6.472;2023-02-08T05:28:33;4.43;;;2.73;;
15363;SDS011;7781;49.690;6.472;2023-02-08T05:31:08;6.93;;;3.97;;
15363;SDS011;7781;49.690;6.472;2023-02-08T05:33:38;8.03;;;3.40;;
15363;SDS011;7781;49.690;6.472;2023-02-08T05:36:07;5.60;;;3.53;;
15363;SDS011;7781;49.690;6.472;2023-02-08T05:38:36;8.67;;;4.40;;
15363;SDS011;7781;49.690;6.472;2023-02-08T05:41:05;8.40;;;3.77;;
15363;SDS011;7781;49.690;6.472;2023-02-08T05:43:33;5.80;;;3.50;;
15363;SDS011;7781;49.690;6.472;2023-02-08T05:46:03;5.10;;;2.80;;
15363;SDS011;7781;49.690;6.472;2023-02-08T05:48:33;4.27;;;3.27;;
15363;SDS011;7781;49.690;6.472;2023-02-08T05:51:02;4.80;;;3.07;;
15363;SDS011;7781;49.690;6.472;2023-02-08T05:53:31;2.53;;;2.10;;
15363;SDS011;7781;49.690;6.472;2023-02-08T05:55:59;3.07;;;2.87;;
15363;SDS011;7781;49.690;6.472;2023-02-08T05:58:28;6.70;;;2.77;;
15363;SDS011;7781;49.690;6.472;2023-02-08T06:00:57;8.60;;;3.00;;
15363;SDS011;7781;49.690;6.472;2023-02-08T06:03:26;3.90;;;2.50;;
15363;SDS011;7781;49.690;6.472;2023-02-08T06:05:57;6.90;;;3.20;;
15363;SDS011;7781;49.690;6.472;2023-02-08T06:08:27;5.40;;;3.93;;
15363;SDS011;7781;49.690;6.472;2023-02-08T06:10:55;4.50;;;2.60;;
15363;SDS011;7781;49.690;6.472;2023-02-08T06:13:24;3.77;;;2.73;;
15363;SDS011;7781;49.690;6.472;2023-02-08T06:15:55;4.27;;;3.23;;
15363;SDS011;7781;49.690;6.472;2023-02-08T06:18:24;6.00;;;2.80;;
15363;SDS011;7781;49.690;6.472;2023-02-08T06:20:53;4.40;;;2.10;;
15363;SDS011;7781;49.690;6.472;2023-02-08T06:23:23;5.50;;;3.10;;
15363;SDS011;7781;49.690;6.472;2023-02-08T06:25:51;7.30;;;3.30;;
15363;SDS011;7781;49.690;6.472;2023-02-08T06:28:21;5.40;;;2.80;;
15363;SDS011;7781;49.690;6.472;2023-02-08T06:30:50;8.07;;;3.40;;
15363;SDS011;7781;49.690;6.472;2023-02-08T06:33:19;3.70;;;2.40;;
15363;SDS011;7781;49.690;6.472;2023-02-08T06:35:50;5.13;;;2.80;;
15363;SDS011;7781;49.690;6.472;2023-02-08T06:38:19;6.47;;;3.03;;
15363;SDS011;7781;49.690;6.472;2023-02-08T06:40:50;3.77;;;2.70;;
15363;SDS011;7781;49.690;6.472;2023-02-08T06:43:18;5.43;;;2.70;;
15363;SDS011;7781;49.690;6.472;2023-02-08T06:45:47;3.73;;;2.43;;
15363;SDS011;7781;49.690;6.472;2023-02-08T06:48:16;4.30;;;2.77;;
15363;SDS011;7781;49.690;6.472;2023-02-08T06:50:44;2.93;;;2.00;;
15363;SDS011;7781;49.690;6.472;2023-02-08T06:53:15;4.67;;;2.90;;
15363;SDS011;7781;49.690;6.472;2023-02-08T06:55:46;8.00;;;3.50;;
15363;SDS011;7781;49.690;6.472;2023-02-08T06:58:17;6.70;;;2.60;;
15363;SDS011;7781;49.690;6.472;2023-02-08T07:00:47;7.50;;;3.30;;
15363;SDS011;7781;49.690;6.472;2023-02-08T07:03:15;6.87;;;3.20;;
15363;SDS011;7781;49.690;6.472;2023-02-08T07:05:45;5.40;;;2.83;;
15363;SDS011;7781;49.690;6.472;2023-02-08T07:08:30;3.83;;;2.90;;
15363;SDS011;7781;49.690;6.472;2023-02-08T07:10:58;3.13;;;2.80;;
15363;SDS011;7781;49.690;6.472;2023-02-08T07:13:29;7.70;;;3.67;;
15363;SDS011;7781;49.690;6.472;2023-02-08T07:15:57;5.37;;;3.20;;
15363;SDS011;7781;49.690;6.472;2023-02-08T07:18:26;4.40;;;3.00;;
15363;SDS011;7781;49.690;6.472;2023-02-08T07:20:55;5.60;;;3.70;;
15363;SDS011;7781;49.690;6.472;2023-02-08T07:23:23;5.40;;;2.73;;
15363;SDS011;7781;49.690;6.472;2023-02-08T07:25:56;5.17;;;2.97;;
15363;SDS011;7781;49.690;6.472;2023-02-08T07:28:30;5.67;;;3.10;;
15363;SDS011;7781;49.690;6.472;2023-02-08T07:30:58;5.37;;;3.47;;
15363;SDS011;7781;49.690;6.472;2023-02-08T07:33:31;3.83;;;3.07;;
15363;SDS011;7781;49.690;6.472;2023-02-08T07:35:59;4.40;;;2.57;;
15363;SDS011;7781;49.690;6.472;2023-02-08T07:38:30;6.00;;;3.30;;
15363;SDS011;7781;49.690;6.472;2023-02-08T07:41:01;3.53;;;2.50;;
15363;SDS011;7781;49.690;6.472;2023-02-08T07:43:33;4.40;;;2.87;;
15363;SDS011;7781;49.690;6.472;2023-02-08T07:46:04;5.93;;;3.30;;
15363;SDS011;7781;49.690;6.472;2023-02-08T07:48:34;3.73;;;2.47;;
15363;SDS011;7781;49.690;6.472;2023-02-08T07:51:06;3.40;;;2.73;;
15363;SDS011;7781;49.690;6.472;2023-02-08T07:53:36;6.53;;;3.30;;
15363;SDS011;7781;49.690;6.472;2023-02-08T07:56:06;3.53;;;3.00;;
15363;SDS011;7781;49.690;6.472;2023-02-08T07:58:37;5.60;;;3.23;;
15363;SDS011;7781;49.690;6.472;2023-02-08T08:01:06;6.90;;;3.50;;
15363;SDS011;7781;49.690;6.472;2023-02-08T08:03:47;5.67;;;3.10;;
15363;SDS011;7781;49.690;6.472;2023-02-08T08:06:17;4.87;;;2.87;;
15363;SDS011;7781;49.690;6.472;2023-02-08T08:08:47;5.63;;;3.13;;
15363;SDS011;7781;49.690;6.472;2023-02-08T08:11:16;4.87;;;3.40;;
15363;SDS011;7781;49.690;6.472;2023-02-08T08:13:48;3.40;;;2.90;;
15363;SDS011;7781;49.690;6.472;2023-02-08T08:16:17;5.30;;;3.40;;
15363;SDS011;7781;49.690;6.472;2023-02-08T08:18:47;4.70;;;2.80;;
15363;SDS011;7781;49.690;6.472;2023-02-08T08:21:16;5.43;;;3.20;;
15363;SDS011;7781;49.690;6.472;2023-02-08T08:23:48;5.87;;;3.70;;
15363;SDS011;7781;49.690;6.472;2023-02-08T08:26:18;7.33;;;3.00;;
15363;SDS011;7781;49.690;6.472;2023-02-08T08:28:49;9.93;;;3.50;;
15363;SDS011;7781;49.690;6.472;2023-02-08T08:31:19;5.10;;;3.00;;
15363;SDS011;7781;49.690;6.472;2023-02-08T08:33:49;4.93;;;3.60;;
15363;SDS011;7781;49.690;6.472;2023-02-08T08:36:18;8.43;;;3.90;;
15363;SDS011;7781;49.690;6.472;2023-02-08T08:38:47;4.80;;;3.27;;
15363;SDS011;7781;49.690;6.472;2023-02-08T08:41:16;5.80;;;3.63;;
15363;SDS011;7781;49.690;6.472;2023-02-08T08:43:44;4.13;;;3.27;;
15363;SDS011;7781;49.690;6.472;2023-02-08T08:46:14;4.40;;;3.10;;
15363;SDS011;7781;49.690;6.472;2023-02-08T08:48:43;4.50;;;3.27;;
15363;SDS011;7781;49.690;6.472;2023-02-08T08:51:12;5.43;;;3.13;;
15363;SDS011;7781;49.690;6.472;2023-02-08T08:53:41;4.90;;;3.40;;
15363;SDS011;7781;49.690;6.472;2023-02-08T08:56:09;6.93;;;3.53;;
15363;SDS011;7781;49.690;6.472;2023-02-08T08:58:38;5.73;;;3.30;;
15363;SDS011;7781;49.690;6.472;2023-02-08T09:01:07;7.13;;;3.63;;
15363;SDS011;7781;49.690;6.472;2023-02-08T09:03:37;6.27;;;3.60;;
15363;SDS011;7781;49.690;6.472;2023-02-08T09:06:06;9.03;;;4.57;;
15363;SDS011;7781;49.690;6.472;2023-02-08T09:08:35;7.27;;;4.23;;
15363;SDS011;7781;49.690;6.472;2023-02-08T09:11:04;8.30;;;4.20;;
15363;SDS011;7781;49.690;6.472;2023-02-08T09:13:33;8.93;;;5.07;;
15363;SDS011;7781;49.690;6.472;2023-02-08T09:16:05;7.50;;;5.20;;
15363;SDS011;7781;49.690;6.472;2023-02-08T09:18:38;7.23;;;4.73;;
15363;SDS011;7781;49.690;6.472;2023-02-08T09:21:08;11.63;;;4.83;;
15363;SDS011;7781;49.690;6.472;2023-02-08T09:23:38;12.00;;;5.03;;
15363;SDS011;7781;49.690;6.472;2023-02-08T09:26:07;6.73;;;4.50;;
15363;SDS011;7781;49.690;6.472;2023-02-08T09:28:38;6.20;;;4.10;;
15363;SDS011;7781;49.690;6.472;2023-02-08T09:31:06;6.07;;;3.67;;
15363;SDS011;7781;49.690;6.472;2023-02-08T09:33:38;7.30;;;4.83;;
15363;SDS011;7781;49.690;6.472;2023-02-08T09:36:08;6.67;;;4.43;;
15363;SDS011;7781;49.690;6.472;2023-02-08T09:38:37;9.90;;;4.43;;
15363;SDS011;7781;49.690;6.472;2023-02-08T09:41:11;10.70;;;5.60;;
15363;SDS011;7781;49.690;6.472;2023-02-08T09:43:52;8.90;;;4.67;;
15363;SDS011;7781;49.690;6.472;2023-02-08T09:46:27;10.47;;;5.10;;
15363;SDS011;7781;49.690;6.472;2023-02-08T09:49:00;6.13;;;4.07;;
15363;SDS011;7781;49.690;6.472;2023-02-08T09:51:32;10.67;;;4.40;;
15363;SDS011;7781;49.690;6.472;2023-02-08T09:54:05;8.83;;;4.13;;
15363;SDS011;7781;49.690;6.472;2023-02-08T09:56:39;9.93;;;4.10;;
15363;SDS011;7781;49.690;6.472;2023-02-08T09:59:11;12.03;;;4.67;;
15363;SDS011;7781;49.690;6.472;2023-02-08T10:01:42;6.40;;;4.30;;
15363;SDS011;7781;49.690;6.472;2023-02-08T10:04:17;5.53;;;4.03;;
15363;SDS011;7781;49.690;6.472;2023-02-08T10:06:51;9.80;;;4.50;;
15363;SDS011;7781;49.690;6.472;2023-02-08T10:09:20;6.20;;;4.27;;
15363;SDS011;7781;49.690;6.472;2023-02-08T10:11:56;6.23;;;3.83;;
15363;SDS011;7781;49.690;6.472;2023-02-08T10:14:38;11.40;;;4.50;;
15363;SDS011;7781;49.690;6.472;2023-02-08T10:20:22;5.17;;;4.10;;
15363;SDS011;7781;49.690;6.472;2023-02-08T10:22:59;6.20;;;3.70;;
15363;SDS011;7781;49.690;6.472;2023-02-08T10:25:44;10.70;;;5.23;;
15363;SDS011;7781;49.690;6.472;2023-02-08T10:28:25;6.33;;;4.57;;
15363;SDS011;7781;49.690;6.472;2023-02-08T10:31:07;4.97;;;3.40;;
15363;SDS011;7781;49.690;6.472;2023-02-08T10:33:44;7.00;;;4.00;;
15363;SDS011;7781;49.690;6.472;2023-02-08T10:36:23;6.70;;;4.30;;
15363;SDS011;7781;49.690;6.472;2023-02-08T10:38:53;10.20;;;4.90;;
15363;SDS011;7781;49.690;6.472;2023-02-08T10:41:24;7.40;;;4.40;;
15363;SDS011;7781;49.690;6.472;2023-02-08T10:43:58;7.20;;;4.43;;
15363;SDS011;7781;49.690;6.472;2023-02-08T10:46:31;6.37;;;3.70;;
15363;SDS011;7781;49.690;6.472;2023-02-08T10:49:05;8.00;;;4.00;;
15363;SDS011;7781;49.690;6.472;2023-02-08T10:51:41;6.60;;;4.47;;
15363;SDS011;7781;49.690;6.472;2023-02-08T10:54:10;7.10;;;3.97;;
15363;SDS011;7781;49.690;6.472;2023-02-08T10:56:42;7.60;;;3.77;;
15363;SDS011;7781;49.690;6.472;2023-02-08T10:59:14;7.40;;;3.67;;
15363;SDS011;7781;49.690;6.472;2023-02-08T11:01:46;5.10;;;3.63;;
15363;SDS011;7781;49.690;6.472;2023-02-08T11:04:17;6.53;;;3.03;;
15363;SDS011;7781;49.690;6.472;2023-02-08T11:06:51;4.87;;;3.80;;
15363;SDS011;7781;49.690;6.472;2023-02-08T11:09:25;8.00;;;4.10;;
15363;SDS011;7781;49.690;6.472;2023-02-08T11:11:57;5.53;;;3.57;;
15363;SDS011;7781;49.690;6.472;2023-02-08T11:14:28;5.77;;;2.97;;
15363;SDS011;7781;49.690;6.472;2023-02-08T11:17:25;12.53;;;3.20;;
15363;SDS011;7781;49.690;6.472;2023-02-08T11:19:57;6.43;;;4.17;;
15363;SDS011;7781;49.690;6.472;2023-02-08T11:22:28;5.50;;;3.40;;
15363;SDS011;7781;49.690;6.472;2023-02-08T11:25:00;6.83;;;4.23;;
15363;SDS011;7781;49.690;6.472;2023-02-08T11:27:32;6.17;;;4.03;;
15363;SDS011;7781;49.690;6.472;2023-02-08T11:30:16;6.43;;;3.33;;
15363;SDS011;7781;49.690;6.472;2023-02-08T11:32:48;5.57;;;3.03;;
15363;SDS011;7781;49.690;6.472;2023-02-08T11:38:33;9.53;;;3.23;;
15363;SDS011;7781;49.690;6.472;2023-02-08T11:41:04;5.20;;;2.80;;
15363;SDS011;7781;49.690;6.472;2023-02-08T11:46:44;6.33;;;3.20;;
15363;SDS011;7781;49.690;6.472;2023-02-08T11:49:19;6.90;;;3.70;;
15363;SDS011;7781;49.690;6.472;2023-02-08T11:51:50;4.10;;;2.80;;
15363;SDS011;7781;49.690;6.472;2023-02-08T11:54:34;8.47;;;3.70;;
15363;SDS011;7781;49.690;6.472;2023-02-08T11:57:11;7.40;;;3.00;;
15363;SDS011;7781;49.690;6.472;2023-02-08T11:59:42;5.37;;;2.70;;
15363;SDS011;7781;49.690;6.472;2023-02-08T12:02:21;5.60;;;3.33;;
15363;SDS011;7781;49.690;6.472;2023-02-08T12:04:58;5.67;;;3.00;;
15363;SDS011;7781;49.690;6.472;2023-02-08T12:07:30;4.40;;;2.47;;
15363;SDS011;7781;49.690;6.472;2023-02-08T12:10:15;4.13;;;2.47;;
15363;SDS011;7781;49.690;6.472;2023-02-08T12:13:07;4.47;;;2.60;;
15363;SDS011;7781;49.690;6.472;2023-02-08T12:15:50;4.30;;;2.70;;
15363;SDS011;7781;49.690;6.472;2023-02-08T12:18:34;7.53;;;3.93;;
15363;SDS011;7781;49.690;6.472;2023-02-08T12:21:15;4.00;;;2.97;;
15363;SDS011;7781;49.690;6.472;2023-02-08T12:23:49;6.63;;;4.30;;
15363;SDS011;7781;49.690;6.472;2023-02-08T12:26:24;6.17;;;3.60;;
15363;SDS011;7781;49.690;6.472;2023-02-08T12:29:13;4.07;;;2.50;;
15363;SDS011;7781;49.690;6.472;2023-02-08T12:31:56;5.30;;;3.33;;
15363;SDS011;7781;49.690;6.472;2023-02-08T12:34:39;6.83;;;2.20;;
15363;SDS011;7781;49.690;6.472;2023-02-08T12:37:25;4.87;;;2.60;;
15363;SDS011;7781;49.690;6.472;2023-02-08T12:40:23;3.60;;;2.40;;
15363;SDS011;7781;49.690;6.472;2023-02-08T12:43:22;3.97;;;2.47;;
15363;SDS011;7781;49.690;6.472;2023-02-08T12:46:17;4.77;;;3.60;;
15363;SDS011;7781;49.690;6.472;2023-02-08T12:49:03;6.43;;;3.27;;
15363;SDS011;7781;49.690;6.472;2023-02-08T12:51:50;5.47;;;3.37;;
15363;SDS011;7781;49.690;6.472;2023-02-08T12:54:28;5.17;;;3.90;;
15363;SDS011;7781;49.690;6.472;2023-02-08T12:57:00;5.23;;;2.93;;
15363;SDS011;7781;49.690;6.472;2023-02-08T12:59:34;9.50;;;5.40;;
15363;SDS011;7781;49.690;6.472;2023-02-08T13:02:10;3.33;;;2.87;;
15363;SDS011;7781;49.690;6.472;2023-02-08T13:04:44;3.50;;;2.20;;
15363;SDS011;7781;49.690;6.472;2023-02-08T13:07:17;4.40;;;2.70;;
15363;SDS011;7781;49.690;6.472;2023-02-08T13:09:51;4.57;;;3.00;;
15363;SDS011;7781;49.690;6.472;2023-02-08T13:12:31;5.20;;;2.30;;
15363;SDS011;7781;49.690;6.472;2023-02-08T13:15:07;2.50;;;2.20;;
15363;SDS011;7781;49.690;6.472;2023-02-08T13:17:57;9.47;;;2.30;;
15363;SDS011;7781;49.690;6.472;2023-02-08T13:20:31;5.67;;;2.43;;
15363;SDS011;7781;49.690;6.472;2023-02-08T13:23:12;3.17;;;2.43;;
15363;SDS011;7781;49.690;6.472;2023-02-08T13:25:46;3.70;;;2.30;;
15363;SDS011;7781;49.690;6.472;2023-02-08T13:28:21;6.63;;;2.40;;
15363;SDS011;7781;49.690;6.472;2023-02-08T13:30:55;14.40;;;2.60;;
15363;SDS011;7781;49.690;6.472;2023-02-08T13:33:31;3.43;;;2.60;;
15363;SDS011;7781;49.690;6.472;2023-02-08T13:36:16;4.53;;;2.33;;
15363;SDS011;7781;49.690;6.472;2023-02-08T13:38:50;3.83;;;2.40;;
15363;SDS011;7781;49.690;6.472;2023-02-08T13:41:20;3.97;;;2.50;;
15363;SDS011;7781;49.690;6.472;2023-02-08T13:43:51;7.10;;;2.47;;
15363;SDS011;7781;49.690;6.472;2023-02-08T13:46:28;3.87;;;1.93;;
15363;SDS011;7781;49.690;6.472;2023-02-08T13:49:10;4.80;;;2.40;;
15363;SDS011;7781;49.690;6.472;2023-02-08T13:52:12;3.40;;;1.70;;
15363;SDS011;7781;49.690;6.472;2023-02-08T13:58:24;4.13;;;2.00;;
15363;SDS011;7781;49.690;6.472;2023-02-08T14:01:17;3.60;;;2.37;;
15363;SDS011;7781;49.690;6.472;2023-02-08T14:06:55;3.03;;;1.97;;
15363;SDS011;7781;49.690;6.472;2023-02-08T14:09:29;3.17;;;2.07;;
15363;SDS011;7781;49.690;6.472;2023-02-08T14:12:11;2.43;;;1.70;;
15363;SDS011;7781;49.690;6.472;2023-02-08T14:15:16;3.13;;;1.70;;
15363;SDS011;7781;49.690;6.472;2023-02-08T14:17:55;2.27;;;1.60;;
15363;SDS011;7781;49.690;6.472;2023-02-08T14:20:29;2.30;;;1.83;;
15363;SDS011;7781;49.690;6.472;2023-02-08T14:23:00;3.43;;;2.40;;
15363;SDS011;7781;49.690;6.472;2023-02-08T14:25:40;2.40;;;1.70;;
15363;SDS011;7781;49.690;6.472;2023-02-08T14:28:21;2.60;;;1.77;;
15363;SDS011;7781;49.690;6.472;2023-02-08T14:30:53;2.90;;;2.07;;
15363;SDS011;7781;49.690;6.472;2023-02-08T14:33:25;2.43;;;1.80;;
15363;SDS011;7781;49.690;6.472;2023-02-08T14:35:57;3.77;;;2.00;;
15363;SDS011;7781;49.690;6.472;2023-02-08T14:38:33;2.77;;;2.17;;
15363;SDS011;7781;49.690;6.472;2023-02-08T14:50:19;1.53;;;1.30;;
15363;SDS011;7781;49.690;6.472;2023-02-08T14:52:53;2.47;;;1.57;;
15363;SDS011;7781;49.690;6.472;2023-02-08T14:55:29;1.60;;;1.40;;
15363;SDS011;7781;49.690;6.472;2023-02-08T14:58:03;3.93;;;2.03;;
15363;SDS011;7781;49.690;6.472;2023-02-08T15:00:34;3.93;;;1.50;;
15363;SDS011;7781;49.690;6.472;2023-02-08T15:03:06;2.80;;;1.60;;
15363;SDS011;7781;49.690;6.472;2023-02-08T15:05:43;3.67;;;1.73;;
15363;SDS011;7781;49.690;6.472;2023-02-08T15:08:28;2.30;;;1.53;;
15363;SDS011;7781;49.690;6.472;2023-02-08T15:10:57;3.13;;;1.70;;
15363;SDS011;7781;49.690;6.472;2023-02-08T15:13:25;2.00;;;1.40;;
15363;SDS011;7781;49.690;6.472;2023-02-08T15:15:56;2.03;;;1.53;;
15363;SDS011;7781;49.690;6.472;2023-02-08T15:18:27;1.90;;;1.30;;
15363;SDS011;7781;49.690;6.472;2023-02-08T15:21:01;1.60;;;1.30;;
15363;SDS011;7781;49.690;6.472;2023-02-08T15:23:33;2.57;;;1.70;;
15363;SDS011;7781;49.690;6.472;2023-02-08T15:26:02;3.57;;;1.70;;
15363;SDS011;7781;49.690;6.472;2023-02-08T15:28:33;2.23;;;1.73;;
15363;SDS011;7781;49.690;6.472;2023-02-08T15:31:04;2.10;;;1.40;;
15363;SDS011;7781;49.690;6.472;2023-02-08T15:33:36;4.00;;;1.60;;
15363;SDS011;7781;49.690;6.472;2023-02-08T15:36:13;2.10;;;1.80;;
15363;SDS011;7781;49.690;6.472;2023-02-08T15:38:46;2.03;;;1.67;;
15363;SDS011;7781;49.690;6.472;2023-02-08T15:41:22;2.40;;;1.73;;
15363;SDS011;7781;49.690;6.472;2023-02-08T15:43:59;11.13;;;3.63;;
15363;SDS011;7781;49.690;6.472;2023-02-08T15:46:32;4.60;;;2.63;;
15363;SDS011;7781;49.690;6.472;2023-02-08T15:49:03;10.07;;;4.93;;
15363;SDS011;7781;49.690;6.472;2023-02-08T15:51:32;6.87;;;3.80;;
15363;SDS011;7781;49.690;6.472;2023-02-08T15:54:03;12.27;;;5.57;;
15363;SDS011;7781;49.690;6.472;2023-02-08T15:56:34;21.37;;;9.90;;
15363;SDS011;7781;49.690;6.472;2023-02-08T15:59:11;20.23;;;8.43;;
15363;SDS011;7781;49.690;6.472;2023-02-08T16:01:46;4.60;;;3.20;;
15363;SDS011;7781;49.690;6.472;2023-02-08T16:04:16;4.23;;;3.03;;
15363;SDS011;7781;49.690;6.472;2023-02-08T16:06:47;9.23;;;6.00;;
15363;SDS011;7781;49.690;6.472;2023-02-08T16:09:21;6.77;;;3.50;;
15363;SDS011;7781;49.690;6.472;2023-02-08T16:11:53;5.30;;;2.93;;
15363;SDS011;7781;49.690;6.472;2023-02-08T16:14:27;2.43;;;1.67;;
15363;SDS011;7781;49.690;6.472;2023-02-08T16:20:02;2.13;;;1.80;;